createdAt,value
2019-04-06T00:00:42.811Z,40.25
2019-04-06T00:05:49.041Z,40.75
2019-04-06T00:10:55.187Z,41.00
2019-04-06T00:16:00.130Z,38.00
2019-04-06T00:21:04.688Z,40.50
2019-04-06T00:26:13.488Z,41.50
2019-04-06T00:31:19.786Z,40.12
2019-04-06T00:36:23.660Z,37.00
2019-04-06T00:41:31.511Z,40.00
2019-04-06T00:46:36.336Z,41.00
2019-04-06T00:51:42.533Z,40.63
2019-04-06T00:56:51.756Z,41.00
2019-04-06T01:01:59.498Z,40.75
2019-04-06T01:07:05.542Z,41.50
2019-04-06T01:12:14.001Z,41.13
2019-04-06T01:17:19.899Z,41.00
2019-04-06T01:22:28.481Z,40.38
2019-04-06T01:27:36.374Z,40.50
2019-04-06T01:32:44.904Z,38.38
2019-04-06T01:37:54.246Z,39.75
2019-04-06T01:42:59.257Z,39.00
2019-04-06T01:48:05.134Z,41.88
2019-04-06T01:53:11.152Z,38.88
2019-04-06T01:58:17.391Z,39.00
2019-04-06T02:03:23.502Z,39.75
2019-04-06T02:08:29.534Z,39.63
2019-04-06T02:13:33.155Z,36.00
2019-04-06T02:18:41.170Z,39.29
2019-04-06T02:23:47.226Z,40.00
2019-04-06T02:28:55.860Z,42.56
2019-04-06T02:34:02.127Z,38.38
2019-04-06T02:39:10.078Z,38.75
2019-04-06T02:44:16.259Z,41.00
2019-04-06T02:49:19.826Z,38.00
2019-04-06T02:54:24.241Z,37.00
2019-04-06T02:59:30.431Z,32.00
2019-04-06T03:04:36.522Z,38.00
2019-04-06T03:09:45.239Z,35.38
2019-04-06T03:14:50.423Z,34.25
2019-04-06T03:19:59.123Z,36.88
2019-04-06T03:25:03.129Z,30.33
2019-04-06T03:30:10.391Z,35.63
2019-04-06T03:35:15.367Z,33.00
2019-04-06T03:40:19.563Z,34.00
2019-04-06T03:45:28.282Z,34.13
2019-04-06T03:50:33.440Z,35.00
2019-04-06T03:55:42.654Z,38.89
2019-04-06T04:00:51.014Z,30.12
2019-04-06T04:05:57.483Z,30.00
2019-04-06T04:11:05.477Z,31.22
2019-04-06T04:16:13.747Z,31.11
2019-04-06T04:21:22.697Z,31.50
2019-04-06T04:26:29.925Z,28.78
2019-04-06T04:31:37.177Z,27.75
2019-04-06T04:36:46.162Z,30.00
2019-04-06T04:41:55.995Z,32.11
2019-04-06T04:47:03.316Z,32.00
2019-04-06T04:52:12.088Z,28.25
2019-04-06T04:57:16.612Z,29.25
2019-04-06T05:02:24.640Z,30.00
2019-04-06T05:07:33.418Z,28.00
2019-04-06T05:12:42.218Z,29.00
2019-04-06T05:17:51.136Z,28.75
2019-04-06T05:23:00.046Z,29.00
2019-04-06T05:28:04.109Z,31.33
2019-04-06T05:33:08.275Z,30.00
2019-04-06T05:38:13.933Z,27.62
2019-04-06T05:43:21.390Z,35.38
2019-04-06T05:48:27.126Z,38.00
2019-04-06T05:53:32.964Z,31.57
2019-04-06T05:58:40.371Z,24.75
2019-04-06T06:03:42.653Z,26.50
2019-04-06T06:08:46.689Z,36.00
2019-04-06T06:18:55.502Z,38.00
2019-04-06T06:24:05.642Z,35.00
2019-04-06T06:29:11.439Z,34.50
2019-04-06T06:34:18.389Z,32.13
2019-04-06T06:39:24.893Z,44.67
2019-04-06T06:44:31.041Z,39.00
2019-04-06T06:49:42.114Z,34.11
2019-04-06T06:54:48.542Z,35.00
2019-04-06T06:59:54.407Z,21.00
2019-04-06T07:05:04.315Z,40.12
2019-04-06T07:10:09.010Z,35.33
2019-04-06T07:15:12.832Z,29.00
2019-04-06T07:20:18.541Z,29.43
2019-04-06T07:25:24.818Z,31.50
2019-04-06T07:30:34.752Z,38.22
2019-04-06T07:35:43.027Z,34.44
2019-04-06T07:40:56.243Z,40.18
2019-04-06T07:46:09.792Z,42.21
2019-04-06T07:51:16.386Z,32.00
2019-04-06T07:56:23.820Z,29.75
2019-04-06T08:01:33.104Z,29.92
2019-04-06T08:06:37.251Z,36.75
2019-04-06T08:11:44.919Z,31.00
2019-04-06T08:16:54.017Z,30.00
2019-04-06T08:22:03.121Z,22.87
2019-04-06T08:27:12.343Z,31.62
2019-04-06T08:32:21.420Z,30.00
2019-04-06T08:37:28.090Z,31.22
2019-04-06T08:42:34.166Z,30.00
2019-04-06T08:47:38.651Z,31.00
2019-04-06T08:52:43.194Z,30.00
2019-04-06T08:57:47.307Z,30.50
2019-04-06T09:02:56.547Z,33.25
2019-04-06T09:08:01.068Z,33.00
2019-04-06T09:13:05.649Z,32.00
2019-04-06T09:18:16.596Z,30.58
2019-04-06T09:23:21.267Z,29.00
2019-04-06T09:28:25.551Z,27.00
2019-04-06T09:33:29.784Z,32.50
2019-04-06T09:38:34.126Z,30.25
2019-04-06T09:43:37.651Z,32.00
2019-04-06T09:48:47.739Z,31.55
2019-04-06T09:54:05.661Z,31.75
2019-04-06T09:59:03.003Z,35.50
2019-04-06T10:04:11.044Z,24.14
2019-04-06T10:09:16.282Z,31.75
2019-04-06T10:14:25.090Z,29.89
2019-04-06T10:19:29.402Z,31.75
2019-04-06T10:24:36.310Z,33.00
2019-04-06T10:29:48.889Z,36.50
2019-04-06T10:34:52.451Z,31.25
2019-04-06T10:40:01.103Z,32.13
2019-04-06T10:45:06.328Z,34.50
2019-04-06T10:50:09.989Z,32.00
2019-04-06T10:55:13.672Z,32.00
2019-04-06T11:00:22.375Z,31.87
2019-04-06T11:05:27.523Z,30.00
2019-04-06T11:10:36.318Z,34.13
2019-04-06T11:15:43.083Z,35.38
2019-04-06T11:20:49.869Z,32.00
2019-04-06T11:25:56.063Z,32.88
2019-04-06T11:31:01.046Z,35.00
2019-04-06T11:36:04.790Z,35.67
2019-04-06T11:41:13.382Z,37.88
2019-04-06T11:46:17.348Z,38.00
2019-04-06T11:51:25.378Z,36.88
2019-04-06T11:56:31.761Z,40.63
2019-04-06T12:01:39.774Z,44.00
2019-04-06T12:06:44.436Z,40.25
2019-04-06T12:11:54.258Z,38.67
2019-04-06T12:17:00.849Z,40.00
2019-04-06T12:22:07.365Z,41.00
2019-04-06T12:27:11.705Z,43.75
2019-04-06T12:32:20.435Z,44.00
2019-04-06T12:37:26.727Z,48.87
2019-04-06T12:42:36.087Z,49.63
2019-04-06T12:47:45.508Z,51.75
2019-04-06T12:52:52.721Z,49.13
2019-04-06T12:57:59.022Z,46.25
2019-04-06T13:03:03.703Z,45.00
2019-04-06T13:08:08.324Z,45.00
2019-04-06T13:13:17.709Z,46.90
2019-04-06T13:18:28.589Z,50.00
2019-04-06T13:23:32.944Z,49.17
2019-04-06T13:28:37.728Z,48.50
2019-04-06T13:33:47.448Z,49.44
2019-04-06T13:38:51.516Z,45.00
2019-04-06T13:43:56.202Z,52.75
2019-04-06T13:49:03.489Z,48.71
2019-04-06T13:54:13.367Z,53.33
2019-04-06T13:59:18.684Z,51.00
2019-04-06T14:04:25.911Z,47.88
2019-04-06T14:09:30.441Z,47.50
2019-04-06T14:14:39.186Z,49.38
2019-04-06T14:19:45.293Z,46.63
2019-04-06T14:24:51.510Z,47.50
2019-04-06T14:29:57.950Z,46.00
2019-04-06T14:35:06.036Z,45.22
2019-04-06T14:40:13.310Z,44.75
2019-04-06T14:45:20.166Z,43.56
2019-04-06T14:50:27.380Z,45.00
2019-04-06T14:55:33.561Z,43.00
2019-04-06T15:00:38.745Z,48.29
2019-04-06T15:05:44.226Z,46.50
2019-04-06T15:10:48.679Z,49.50
2019-04-06T15:15:53.319Z,51.00
2019-04-06T15:20:57.869Z,49.50
2019-04-06T15:26:05.132Z,44.63
2019-04-06T15:31:12.243Z,47.22
2019-04-06T15:36:16.638Z,47.00
2019-04-06T15:41:21.220Z,45.00
2019-04-06T15:46:30.965Z,47.62
2019-04-06T15:51:41.058Z,46.33
2019-04-06T15:56:45.733Z,46.83
2019-04-06T16:02:01.414Z,47.75
2019-04-06T16:07:00.911Z,64.00
2019-04-06T16:12:07.943Z,48.75
2019-04-06T16:17:16.720Z,48.11
2019-04-06T16:22:26.955Z,53.56
2019-04-06T16:27:33.329Z,51.37
2019-04-06T16:32:39.896Z,51.00
2019-04-06T16:37:49.324Z,53.50
2019-04-06T16:42:54.052Z,55.00
2019-04-06T16:48:04.892Z,62.00
2019-04-06T16:53:15.053Z,68.00
2019-04-06T16:58:25.092Z,61.00
2019-04-06T17:03:32.907Z,53.87
2019-04-06T17:08:40.186Z,54.78
2019-04-06T17:13:59.334Z,58.38
2019-04-06T17:19:05.952Z,58.50
2019-04-06T17:24:11.274Z,53.00
2019-04-06T17:34:19.340Z,57.60
2019-04-06T17:39:28.917Z,50.11
2019-04-06T17:44:32.251Z,48.67
2019-04-06T17:49:36.984Z,47.00
2019-04-06T17:54:47.625Z,48.22
2019-04-06T17:59:53.223Z,50.12
2019-04-06T18:05:00.236Z,47.88
2019-04-06T18:10:06.186Z,52.14
2019-04-06T18:15:10.911Z,53.00
2019-04-06T18:20:19.845Z,50.00
2019-04-06T18:25:27.038Z,49.75
2019-04-06T18:30:33.083Z,48.13
2019-04-06T18:35:37.626Z,50.00
2019-04-06T18:40:42.528Z,51.00
2019-04-06T18:45:46.909Z,57.67
2019-04-06T18:50:58.613Z,55.00
2019-04-06T18:56:13.683Z,63.67
2019-04-06T19:01:37.471Z,68.83
2019-04-06T19:07:02.771Z,68.06
2019-04-06T19:12:21.805Z,67.58
2019-04-06T19:17:31.884Z,55.64
2019-04-06T19:22:38.747Z,44.75
2019-04-06T19:27:42.428Z,32.50
2019-04-06T19:32:47.226Z,30.33
2019-04-06T19:37:53.024Z,32.86
2019-04-06T19:43:01.072Z,41.89
2019-04-06T19:48:07.332Z,35.25
2019-04-06T19:53:15.908Z,31.27
2019-04-06T19:58:19.189Z,26.00
2019-04-06T20:03:35.088Z,32.00
2019-04-06T20:08:36.257Z,32.29
2019-04-06T20:13:43.574Z,43.22
2019-04-06T20:18:57.095Z,42.88
2019-04-06T20:24:02.770Z,44.75
2019-04-06T20:29:06.435Z,44.00
2019-04-06T20:34:11.894Z,36.00
2019-04-06T20:39:16.997Z,33.00
2019-04-06T20:44:51.922Z,52.41
2019-04-06T20:50:03.866Z,42.86
2019-04-06T20:55:08.944Z,37.00
2019-04-06T21:01:40.515Z,37.84
2019-04-06T21:06:44.747Z,47.00
2019-04-06T21:11:50.153Z,43.00
2019-04-06T21:16:56.703Z,36.38
2019-04-06T21:22:03.441Z,33.00
2019-04-06T21:27:08.612Z,32.00
2019-04-06T21:32:15.591Z,31.00
2019-04-06T21:37:24.262Z,30.12
2019-04-06T21:42:30.489Z,22.86
2019-04-06T21:47:36.458Z,28.38
2019-04-06T21:52:40.630Z,32.75
2019-04-06T21:57:45.582Z,31.00
2019-04-06T22:02:53.775Z,27.13
2019-04-06T22:13:34.006Z,34.67
2019-04-06T22:18:38.669Z,34.00
2019-04-06T22:23:47.402Z,34.75
2019-04-06T22:28:53.773Z,29.75
2019-04-06T22:34:01.976Z,31.00
2019-04-06T22:39:08.700Z,29.00
2019-04-06T22:44:18.848Z,28.09
2019-04-06T22:49:26.047Z,26.12
2019-04-06T22:54:32.284Z,27.25
2019-04-06T22:59:35.467Z,25.25
2019-04-06T23:04:47.791Z,31.67
2019-04-06T23:09:44.262Z,24.00
2019-04-06T23:14:47.916Z,36.00
2019-04-06T23:19:52.339Z,29.50
2019-04-06T23:24:56.588Z,36.00
2019-04-06T23:36:08.916Z,31.00
2019-04-06T23:41:15.420Z,34.63
2019-04-06T23:46:21.338Z,37.57
2019-04-06T23:51:29.579Z,33.50
2019-04-06T23:56:36.764Z,39.75
